Wesleyville, Canada
Current Conditions -  °F | °C
As of 8:00 PM on Monday 20 Oct 2014 (Local Time) from CYQX Reporting Station
Few Clouds Few Clouds  
Wind Chill:   Ceiling: Unl
Heat Index:   Visibility: 20mi
Dew Point:   Wind: 21mph
Humidity: 71%   Direction: 230°SW
Pressure: 29.49"   Gusts: 37mph
Location:  49.15°N, 53.58°W
Report Text: CYQX 202200Z 23018G32KT 20SM FEW025 FEW040 08/03 A2949 RMK SC1SC1 SLP988
Loading
Personal Weather Stations






























Interactive Weather Map
Tropical Storm Tracking
New forecast layout! Learn more

10-Day Weather Forecast

Advertisements
Track Severe Weather on mobile